sensor_id;sensor_type;location;lat;lon;timestamp;P1;durP1;ratioP1;P2;durP2;ratioP2
31482;SDS011;18103;52.246;8.052;2023-02-13T00:02:22;25.00;;;10.90;;
31482;SDS011;18103;52.246;8.052;2023-02-13T00:04:47;23.67;;;10.73;;
31482;SDS011;18103;52.246;8.052;2023-02-13T00:07:13;20.03;;;11.20;;
31482;SDS011;18103;52.246;8.052;2023-02-13T00:09:38;23.77;;;11.37;;
31482;SDS011;18103;52.246;8.052;2023-02-13T00:12:05;24.20;;;10.57;;
31482;SDS011;18103;52.246;8.052;2023-02-13T00:14:33;23.60;;;11.17;;
31482;SDS011;18103;52.246;8.052;2023-02-13T00:16:59;22.77;;;10.90;;
31482;SDS011;18103;52.246;8.052;2023-02-13T00:19:25;23.20;;;11.60;;
31482;SDS011;18103;52.246;8.052;2023-02-13T00:21:50;22.37;;;11.33;;
31482;SDS011;18103;52.246;8.052;2023-02-13T00:24:15;32.07;;;13.20;;
31482;SDS011;18103;52.246;8.052;2023-02-13T00:26:41;22.30;;;11.57;;
31482;SDS011;18103;52.246;8.052;2023-02-13T00:29:06;23.60;;;12.67;;
31482;SDS011;18103;52.246;8.052;2023-02-13T00:31:31;29.73;;;12.93;;
31482;SDS011;18103;52.246;8.052;2023-02-13T00:33:57;24.33;;;12.77;;
31482;SDS011;18103;52.246;8.052;2023-02-13T00:36:22;24.43;;;12.43;;
31482;SDS011;18103;52.246;8.052;2023-02-13T00:38:48;23.60;;;12.73;;
31482;SDS011;18103;52.246;8.052;2023-02-13T00:41:14;25.67;;;11.70;;
31482;SDS011;18103;52.246;8.052;2023-02-13T00:43:41;23.90;;;11.57;;
31482;SDS011;18103;52.246;8.052;2023-02-13T00:46:07;27.37;;;12.03;;
31482;SDS011;18103;52.246;8.052;2023-02-13T00:48:33;23.67;;;11.87;;
31482;SDS011;18103;52.246;8.052;2023-02-13T00:50:59;25.73;;;12.20;;
31482;SDS011;18103;52.246;8.052;2023-02-13T00:53:24;26.13;;;11.40;;
31482;SDS011;18103;52.246;8.052;2023-02-13T00:55:50;20.33;;;11.07;;
31482;SDS011;18103;52.246;8.052;2023-02-13T00:58:17;26.53;;;10.87;;
31482;SDS011;18103;52.246;8.052;2023-02-13T01:00:43;19.97;;;10.57;;
31482;SDS011;18103;52.246;8.052;2023-02-13T01:03:11;24.13;;;11.53;;
31482;SDS011;18103;52.246;8.052;2023-02-13T01:05:37;22.90;;;9.77;;
31482;SDS011;18103;52.246;8.052;2023-02-13T01:08:02;21.53;;;11.10;;
31482;SDS011;18103;52.246;8.052;2023-02-13T01:10:28;25.90;;;12.47;;
31482;SDS011;18103;52.246;8.052;2023-02-13T01:12:53;23.97;;;11.93;;
31482;SDS011;18103;52.246;8.052;2023-02-13T01:15:18;26.53;;;12.43;;
31482;SDS011;18103;52.246;8.052;2023-02-13T01:17:44;27.07;;;11.17;;
31482;SDS011;18103;52.246;8.052;2023-02-13T01:20:10;25.53;;;11.37;;
31482;SDS011;18103;52.246;8.052;2023-02-13T01:22:37;21.87;;;11.77;;
31482;SDS011;18103;52.246;8.052;2023-02-13T01:25:04;22.80;;;9.83;;
31482;SDS011;18103;52.246;8.052;2023-02-13T01:27:29;24.70;;;11.67;;
31482;SDS011;18103;52.246;8.052;2023-02-13T01:29:56;22.43;;;11.47;;
31482;SDS011;18103;52.246;8.052;2023-02-13T01:32:22;19.87;;;10.37;;
31482;SDS011;18103;52.246;8.052;2023-02-13T01:34:47;21.37;;;11.83;;
31482;SDS011;18103;52.246;8.052;2023-02-13T01:37:13;26.77;;;10.57;;
31482;SDS011;18103;52.246;8.052;2023-02-13T01:39:38;22.53;;;12.17;;
31482;SDS011;18103;52.246;8.052;2023-02-13T01:42:04;24.60;;;12.10;;
31482;SDS011;18103;52.246;8.052;2023-02-13T01:44:49;25.43;;;11.87;;
31482;SDS011;18103;52.246;8.052;2023-02-13T01:47:20;25.53;;;11.97;;
31482;SDS011;18103;52.246;8.052;2023-02-13T01:50:01;29.93;;;10.97;;
31482;SDS011;18103;52.246;8.052;2023-02-13T01:52:34;26.43;;;11.50;;
31482;SDS011;18103;52.246;8.052;2023-02-13T01:55:04;23.07;;;10.27;;
31482;SDS011;18103;52.246;8.052;2023-02-13T01:57:32;24.97;;;11.37;;
31482;SDS011;18103;52.246;8.052;2023-02-13T02:00:05;21.83;;;10.50;;
31482;SDS011;18103;52.246;8.052;2023-02-13T02:02:34;23.67;;;10.17;;
31482;SDS011;18103;52.246;8.052;2023-02-13T02:05:03;22.00;;;10.40;;
31482;SDS011;18103;52.246;8.052;2023-02-13T02:07:31;19.77;;;11.23;;
31482;SDS011;18103;52.246;8.052;2023-02-13T02:09:59;18.77;;;10.00;;
31482;SDS011;18103;52.246;8.052;2023-02-13T02:15:21;21.63;;;10.33;;
31482;SDS011;18103;52.246;8.052;2023-02-13T02:17:47;22.77;;;10.13;;
31482;SDS011;18103;52.246;8.052;2023-02-13T02:28:47;18.97;;;9.97;;
31482;SDS011;18103;52.246;8.052;2023-02-13T02:38:46;20.43;;;10.13;;
31482;SDS011;18103;52.246;8.052;2023-02-13T02:49:45;20.70;;;10.37;;
31482;SDS011;18103;52.246;8.052;2023-02-13T02:58:00;20.73;;;9.57;;
31482;SDS011;18103;52.246;8.052;2023-02-13T03:00:45;18.17;;;8.97;;
31482;SDS011;18103;52.246;8.052;2023-02-13T03:03:30;21.13;;;9.97;;
31482;SDS011;18103;52.246;8.052;2023-02-13T03:06:31;18.93;;;9.47;;
31482;SDS011;18103;52.246;8.052;2023-02-13T03:09:03;22.70;;;10.40;;
31482;SDS011;18103;52.246;8.052;2023-02-13T03:11:53;19.80;;;10.17;;
31482;SDS011;18103;52.246;8.052;2023-02-13T03:14:39;21.53;;;10.10;;
31482;SDS011;18103;52.246;8.052;2023-02-13T03:17:04;21.23;;;9.77;;
31482;SDS011;18103;52.246;8.052;2023-02-13T03:22:54;22.43;;;9.83;;
31482;SDS011;18103;52.246;8.052;2023-02-13T03:25:52;21.13;;;10.70;;
31482;SDS011;18103;52.246;8.052;2023-02-13T03:28:33;20.17;;;9.37;;
31482;SDS011;18103;52.246;8.052;2023-02-13T03:34:25;18.73;;;8.47;;
31482;SDS011;18103;52.246;8.052;2023-02-13T03:37:16;20.23;;;10.63;;
31482;SDS011;18103;52.246;8.052;2023-02-13T03:40:08;23.10;;;10.50;;
31482;SDS011;18103;52.246;8.052;2023-02-13T03:42:44;24.60;;;9.73;;
31482;SDS011;18103;52.246;8.052;2023-02-13T03:48:19;23.13;;;9.47;;
31482;SDS011;18103;52.246;8.052;2023-02-13T03:51:06;22.47;;;10.33;;
31482;SDS011;18103;52.246;8.052;2023-02-13T03:53:34;18.80;;;9.47;;
31482;SDS011;18103;52.246;8.052;2023-02-13T03:56:03;23.47;;;9.43;;
31482;SDS011;18103;52.246;8.052;2023-02-13T03:58:50;20.83;;;9.10;;
31482;SDS011;18103;52.246;8.052;2023-02-13T04:01:37;27.07;;;10.47;;
31482;SDS011;18103;52.246;8.052;2023-02-13T04:04:19;20.03;;;9.50;;
31482;SDS011;18103;52.246;8.052;2023-02-13T04:06:51;22.17;;;9.63;;
31482;SDS011;18103;52.246;8.052;2023-02-13T04:09:21;20.47;;;9.90;;
31482;SDS011;18103;52.246;8.052;2023-02-13T04:14:42;20.50;;;9.73;;
31482;SDS011;18103;52.246;8.052;2023-02-13T04:17:20;20.90;;;8.77;;
31482;SDS011;18103;52.246;8.052;2023-02-13T04:19:48;21.10;;;9.37;;
31482;SDS011;18103;52.246;8.052;2023-02-13T04:22:14;23.50;;;10.20;;
31482;SDS011;18103;52.246;8.052;2023-02-13T04:24:40;21.77;;;9.83;;
31482;SDS011;18103;52.246;8.052;2023-02-13T04:27:05;17.53;;;9.30;;
31482;SDS011;18103;52.246;8.052;2023-02-13T04:29:33;17.87;;;9.57;;
31482;SDS011;18103;52.246;8.052;2023-02-13T04:31:59;14.23;;;8.13;;
31482;SDS011;18103;52.246;8.052;2023-02-13T04:34:24;20.67;;;8.57;;
31482;SDS011;18103;52.246;8.052;2023-02-13T04:36:49;16.37;;;9.00;;
31482;SDS011;18103;52.246;8.052;2023-02-13T04:39:15;18.67;;;8.63;;
31482;SDS011;18103;52.246;8.052;2023-02-13T04:41:40;20.23;;;9.63;;
31482;SDS011;18103;52.246;8.052;2023-02-13T04:44:05;24.10;;;10.17;;
31482;SDS011;18103;52.246;8.052;2023-02-13T04:46:31;22.40;;;9.33;;
31482;SDS011;18103;52.246;8.052;2023-02-13T04:48:56;20.43;;;8.87;;
31482;SDS011;18103;52.246;8.052;2023-02-13T04:51:22;21.90;;;10.00;;
31482;SDS011;18103;52.246;8.052;2023-02-13T04:53:47;19.17;;;9.30;;
31482;SDS011;18103;52.246;8.052;2023-02-13T04:56:12;21.07;;;10.03;;
31482;SDS011;18103;52.246;8.052;2023-02-13T04:58:38;22.00;;;9.87;;
31482;SDS011;18103;52.246;8.052;2023-02-13T05:01:10;21.50;;;9.23;;
31482;SDS011;18103;52.246;8.052;2023-02-13T05:03:39;25.00;;;9.27;;
31482;SDS011;18103;52.246;8.052;2023-02-13T05:06:05;21.13;;;9.47;;
31482;SDS011;18103;52.246;8.052;2023-02-13T05:08:31;22.63;;;10.43;;
31482;SDS011;18103;52.246;8.052;2023-02-13T05:10:56;19.67;;;8.90;;
31482;SDS011;18103;52.246;8.052;2023-02-13T05:13:21;24.23;;;9.10;;
31482;SDS011;18103;52.246;8.052;2023-02-13T05:15:47;24.60;;;9.50;;
31482;SDS011;18103;52.246;8.052;2023-02-13T05:18:13;20.97;;;8.57;;
31482;SDS011;18103;52.246;8.052;2023-02-13T05:20:39;22.67;;;10.00;;
31482;SDS011;18103;52.246;8.052;2023-02-13T05:23:07;17.37;;;9.43;;
31482;SDS011;18103;52.246;8.052;2023-02-13T05:25:47;22.27;;;10.03;;
31482;SDS011;18103;52.246;8.052;2023-02-13T05:28:12;18.97;;;8.97;;
31482;SDS011;18103;52.246;8.052;2023-02-13T05:30:57;24.30;;;8.93;;
31482;SDS011;18103;52.246;8.052;2023-02-13T05:33:22;20.23;;;9.43;;
31482;SDS011;18103;52.246;8.052;2023-02-13T05:35:48;21.77;;;8.97;;
31482;SDS011;18103;52.246;8.052;2023-02-13T05:38:13;19.87;;;7.97;;
31482;SDS011;18103;52.246;8.052;2023-02-13T05:40:39;20.13;;;9.10;;
31482;SDS011;18103;52.246;8.052;2023-02-13T05:43:04;23.80;;;9.17;;
31482;SDS011;18103;52.246;8.052;2023-02-13T05:45:30;16.67;;;8.77;;
31482;SDS011;18103;52.246;8.052;2023-02-13T05:47:55;16.27;;;8.93;;
31482;SDS011;18103;52.246;8.052;2023-02-13T05:50:21;22.43;;;10.27;;
31482;SDS011;18103;52.246;8.052;2023-02-13T05:52:46;25.40;;;10.47;;
31482;SDS011;18103;52.246;8.052;2023-02-13T05:55:11;21.53;;;9.43;;
31482;SDS011;18103;52.246;8.052;2023-02-13T05:57:37;22.07;;;8.80;;
31482;SDS011;18103;52.246;8.052;2023-02-13T06:00:02;23.07;;;9.00;;
31482;SDS011;18103;52.246;8.052;2023-02-13T06:02:29;18.97;;;8.40;;
31482;SDS011;18103;52.246;8.052;2023-02-13T06:04:54;20.00;;;8.90;;
31482;SDS011;18103;52.246;8.052;2023-02-13T06:07:19;25.03;;;8.87;;
31482;SDS011;18103;52.246;8.052;2023-02-13T06:09:45;16.93;;;8.93;;
31482;SDS011;18103;52.246;8.052;2023-02-13T06:12:10;20.63;;;8.80;;
31482;SDS011;18103;52.246;8.052;2023-02-13T06:14:35;19.33;;;9.10;;
31482;SDS011;18103;52.246;8.052;2023-02-13T06:17:01;21.67;;;8.37;;
31482;SDS011;18103;52.246;8.052;2023-02-13T06:19:26;18.70;;;7.90;;
31482;SDS011;18103;52.246;8.052;2023-02-13T06:21:51;17.77;;;9.00;;
31482;SDS011;18103;52.246;8.052;2023-02-13T06:24:17;18.67;;;9.53;;
31482;SDS011;18103;52.246;8.052;2023-02-13T06:26:42;16.60;;;8.23;;
31482;SDS011;18103;52.246;8.052;2023-02-13T06:29:08;19.23;;;8.07;;
31482;SDS011;18103;52.246;8.052;2023-02-13T06:31:33;19.97;;;9.20;;
31482;SDS011;18103;52.246;8.052;2023-02-13T06:33:59;22.10;;;8.50;;
31482;SDS011;18103;52.246;8.052;2023-02-13T06:36:24;18.47;;;8.20;;
31482;SDS011;18103;52.246;8.052;2023-02-13T06:38:49;20.80;;;9.83;;
31482;SDS011;18103;52.246;8.052;2023-02-13T06:41:15;20.10;;;8.43;;
31482;SDS011;18103;52.246;8.052;2023-02-13T06:43:40;18.87;;;8.20;;
31482;SDS011;18103;52.246;8.052;2023-02-13T06:46:06;18.83;;;8.53;;
31482;SDS011;18103;52.246;8.052;2023-02-13T06:48:32;23.53;;;8.20;;
31482;SDS011;18103;52.246;8.052;2023-02-13T06:50:58;22.93;;;8.20;;
31482;SDS011;18103;52.246;8.052;2023-02-13T06:53:23;20.20;;;8.20;;
31482;SDS011;18103;52.246;8.052;2023-02-13T06:55:52;16.97;;;7.43;;
31482;SDS011;18103;52.246;8.052;2023-02-13T06:58:19;19.70;;;8.03;;
31482;SDS011;18103;52.246;8.052;2023-02-13T07:00:46;22.67;;;9.27;;
31482;SDS011;18103;52.246;8.052;2023-02-13T07:03:11;17.97;;;8.10;;
31482;SDS011;18103;52.246;8.052;2023-02-13T07:05:38;18.00;;;7.60;;
31482;SDS011;18103;52.246;8.052;2023-02-13T07:08:05;19.87;;;8.63;;
31482;SDS011;18103;52.246;8.052;2023-02-13T07:10:30;17.70;;;8.37;;
31482;SDS011;18103;52.246;8.052;2023-02-13T07:12:56;21.93;;;8.90;;
31482;SDS011;18103;52.246;8.052;2023-02-13T07:15:21;21.33;;;8.67;;
31482;SDS011;18103;52.246;8.052;2023-02-13T07:17:46;17.90;;;8.43;;
31482;SDS011;18103;52.246;8.052;2023-02-13T07:20:12;19.90;;;8.13;;
31482;SDS011;18103;52.246;8.052;2023-02-13T07:22:37;19.00;;;7.87;;
31482;SDS011;18103;52.246;8.052;2023-02-13T07:25:03;18.00;;;7.83;;
31482;SDS011;18103;52.246;8.052;2023-02-13T07:27:28;18.77;;;7.90;;
31482;SDS011;18103;52.246;8.052;2023-02-13T07:29:55;17.23;;;8.27;;
31482;SDS011;18103;52.246;8.052;2023-02-13T07:32:21;15.13;;;6.73;;
31482;SDS011;18103;52.246;8.052;2023-02-13T07:34:48;13.30;;;6.63;;
31482;SDS011;18103;52.246;8.052;2023-02-13T07:37:13;19.17;;;8.53;;
31482;SDS011;18103;52.246;8.052;2023-02-13T07:39:38;16.73;;;7.83;;
31482;SDS011;18103;52.246;8.052;2023-02-13T07:42:05;20.43;;;7.90;;
31482;SDS011;18103;52.246;8.052;2023-02-13T07:44:31;17.93;;;8.77;;
31482;SDS011;18103;52.246;8.052;2023-02-13T07:46:57;14.60;;;7.40;;
31482;SDS011;18103;52.246;8.052;2023-02-13T07:49:22;18.07;;;7.43;;
31482;SDS011;18103;52.246;8.052;2023-02-13T07:51:47;18.40;;;6.67;;
31482;SDS011;18103;52.246;8.052;2023-02-13T07:54:13;18.33;;;7.67;;
31482;SDS011;18103;52.246;8.052;2023-02-13T07:56:38;16.60;;;7.53;;
31482;SDS011;18103;52.246;8.052;2023-02-13T07:59:03;18.10;;;8.17;;
31482;SDS011;18103;52.246;8.052;2023-02-13T08:01:29;17.47;;;7.90;;
31482;SDS011;18103;52.246;8.052;2023-02-13T08:03:54;19.77;;;7.43;;
31482;SDS011;18103;52.246;8.052;2023-02-13T08:06:20;18.60;;;7.50;;
31482;SDS011;18103;52.246;8.052;2023-02-13T08:08:46;16.23;;;8.23;;
31482;SDS011;18103;52.246;8.052;2023-02-13T08:11:18;17.73;;;8.20;;
31482;SDS011;18103;52.246;8.052;2023-02-13T08:14:07;13.70;;;6.77;;
31482;SDS011;18103;52.246;8.052;2023-02-13T08:16:33;13.43;;;6.20;;
31482;SDS011;18103;52.246;8.052;2023-02-13T08:18:58;17.57;;;7.40;;
31482;SDS011;18103;52.246;8.052;2023-02-13T08:21:23;15.10;;;7.27;;
31482;SDS011;18103;52.246;8.052;2023-02-13T08:23:49;14.10;;;6.80;;
31482;SDS011;18103;52.246;8.052;2023-02-13T08:26:16;17.77;;;7.87;;
31482;SDS011;18103;52.246;8.052;2023-02-13T08:28:41;13.87;;;6.43;;
31482;SDS011;18103;52.246;8.052;2023-02-13T08:31:10;11.67;;;5.23;;
31482;SDS011;18103;52.246;8.052;2023-02-13T08:33:36;22.40;;;6.03;;
31482;SDS011;18103;52.246;8.052;2023-02-13T08:36:02;13.07;;;6.23;;
31482;SDS011;18103;52.246;8.052;2023-02-13T08:38:28;11.53;;;5.77;;
31482;SDS011;18103;52.246;8.052;2023-02-13T08:40:55;15.33;;;6.13;;
31482;SDS011;18103;52.246;8.052;2023-02-13T08:43:21;13.93;;;6.13;;
31482;SDS011;18103;52.246;8.052;2023-02-13T08:45:46;13.70;;;6.47;;
31482;SDS011;18103;52.246;8.052;2023-02-13T08:48:12;14.13;;;6.17;;
31482;SDS011;18103;52.246;8.052;2023-02-13T08:50:37;9.47;;;5.30;;
31482;SDS011;18103;52.246;8.052;2023-02-13T08:53:03;13.80;;;7.10;;
31482;SDS011;18103;52.246;8.052;2023-02-13T08:55:29;12.67;;;6.83;;
31482;SDS011;18103;52.246;8.052;2023-02-13T08:57:58;19.33;;;6.73;;
31482;SDS011;18103;52.246;8.052;2023-02-13T09:00:27;15.00;;;6.33;;
31482;SDS011;18103;52.246;8.052;2023-02-13T09:02:52;13.43;;;6.63;;
31482;SDS011;18103;52.246;8.052;2023-02-13T09:05:18;15.73;;;6.47;;
31482;SDS011;18103;52.246;8.052;2023-02-13T09:07:43;17.33;;;6.70;;
31482;SDS011;18103;52.246;8.052;2023-02-13T09:10:09;14.00;;;6.10;;
31482;SDS011;18103;52.246;8.052;2023-02-13T09:12:35;13.67;;;6.40;;
31482;SDS011;18103;52.246;8.052;2023-02-13T09:15:00;11.60;;;6.23;;
31482;SDS011;18103;52.246;8.052;2023-02-13T09:17:25;12.40;;;6.17;;
31482;SDS011;18103;52.246;8.052;2023-02-13T09:19:51;11.93;;;6.23;;
31482;SDS011;18103;52.246;8.052;2023-02-13T09:22:16;13.00;;;6.87;;
31482;SDS011;18103;52.246;8.052;2023-02-13T09:24:41;11.43;;;6.33;;
31482;SDS011;18103;52.246;8.052;2023-02-13T09:27:07;15.63;;;7.07;;
31482;SDS011;18103;52.246;8.052;2023-02-13T09:29:34;14.03;;;5.93;;
31482;SDS011;18103;52.246;8.052;2023-02-13T09:31:59;15.50;;;6.10;;
31482;SDS011;18103;52.246;8.052;2023-02-13T09:34:24;14.97;;;6.27;;
31482;SDS011;18103;52.246;8.052;2023-02-13T09:36:51;12.67;;;6.53;;
31482;SDS011;18103;52.246;8.052;2023-02-13T09:39:17;12.50;;;6.53;;
31482;SDS011;18103;52.246;8.052;2023-02-13T09:41:43;13.10;;;6.47;;
31482;SDS011;18103;52.246;8.052;2023-02-13T09:44:12;12.83;;;6.80;;
31482;SDS011;18103;52.246;8.052;2023-02-13T09:49:55;14.93;;;6.23;;
31482;SDS011;18103;52.246;8.052;2023-02-13T09:52:25;11.90;;;6.07;;
31482;SDS011;18103;52.246;8.052;2023-02-13T09:54:56;14.13;;;6.73;;
31482;SDS011;18103;52.246;8.052;2023-02-13T09:57:26;16.83;;;7.27;;
31482;SDS011;18103;52.246;8.052;2023-02-13T10:00:09;12.20;;;6.60;;
31482;SDS011;18103;52.246;8.052;2023-02-13T10:13:45;11.90;;;6.03;;
31482;SDS011;18103;52.246;8.052;2023-02-13T10:16:16;11.33;;;5.80;;
31482;SDS011;18103;52.246;8.052;2023-02-13T10:18:50;10.77;;;5.60;;
31482;SDS011;18103;52.246;8.052;2023-02-13T10:21:20;14.00;;;6.10;;
31482;SDS011;18103;52.246;8.052;2023-02-13T10:24:00;12.23;;;5.43;;
31482;SDS011;18103;52.246;8.052;2023-02-13T10:26:32;9.57;;;4.93;;
31482;SDS011;18103;52.246;8.052;2023-02-13T10:29:12;13.33;;;5.53;;
31482;SDS011;18103;52.246;8.052;2023-02-13T10:31:58;8.90;;;5.40;;
31482;SDS011;18103;52.246;8.052;2023-02-13T10:34:27;11.43;;;4.83;;
31482;SDS011;18103;52.246;8.052;2023-02-13T10:36:59;11.17;;;4.83;;
31482;SDS011;18103;52.246;8.052;2023-02-13T10:39:28;11.20;;;5.90;;
31482;SDS011;18103;52.246;8.052;2023-02-13T10:42:00;9.33;;;5.63;;
31482;SDS011;18103;52.246;8.052;2023-02-13T10:44:39;11.87;;;5.97;;
31482;SDS011;18103;52.246;8.052;2023-02-13T10:50:25;11.13;;;5.00;;
31482;SDS011;18103;52.246;8.052;2023-02-13T10:53:15;12.83;;;5.27;;
31482;SDS011;18103;52.246;8.052;2023-02-13T11:04:07;10.17;;;5.70;;
31482;SDS011;18103;52.246;8.052;2023-02-13T11:06:35;11.33;;;5.57;;
31482;SDS011;18103;52.246;8.052;2023-02-13T11:09:06;9.60;;;5.07;;
31482;SDS011;18103;52.246;8.052;2023-02-13T11:11:37;11.27;;;5.77;;
31482;SDS011;18103;52.246;8.052;2023-02-13T11:14:17;12.50;;;5.47;;
31482;SDS011;18103;52.246;8.052;2023-02-13T11:16:56;12.60;;;6.23;;
31482;SDS011;18103;52.246;8.052;2023-02-13T11:19:32;9.77;;;5.60;;
31482;SDS011;18103;52.246;8.052;2023-02-13T11:22:02;10.87;;;5.87;;
31482;SDS011;18103;52.246;8.052;2023-02-13T11:24:32;14.17;;;6.30;;
31482;SDS011;18103;52.246;8.052;2023-02-13T11:26:59;14.77;;;5.97;;
31482;SDS011;18103;52.246;8.052;2023-02-13T11:29:30;11.80;;;5.70;;
31482;SDS011;18103;52.246;8.052;2023-02-13T11:32:39;10.43;;;5.87;;
31482;SDS011;18103;52.246;8.052;2023-02-13T11:34:49;9.90;;;4.37;;
31482;SDS011;18103;52.246;8.052;2023-02-13T11:37:33;12.23;;;6.00;;
31482;SDS011;18103;52.246;8.052;2023-02-13T11:39:59;15.60;;;5.60;;
31482;SDS011;18103;52.246;8.052;2023-02-13T11:42:44;12.40;;;5.50;;
31482;SDS011;18103;52.246;8.052;2023-02-13T11:45:24;10.93;;;5.53;;
31482;SDS011;18103;52.246;8.052;2023-02-13T11:47:50;12.73;;;5.57;;
31482;SDS011;18103;52.246;8.052;2023-02-13T11:55:31;10.27;;;5.83;;
31482;SDS011;18103;52.246;8.052;2023-02-13T12:00:39;13.83;;;5.23;;
31482;SDS011;18103;52.246;8.052;2023-02-13T12:03:26;13.63;;;6.00;;
31482;SDS011;18103;52.246;8.052;2023-02-13T12:08:40;8.93;;;4.93;;
31482;SDS011;18103;52.246;8.052;2023-02-13T12:11:54;14.47;;;6.67;;
31482;SDS011;18103;52.246;8.052;2023-02-13T12:13:56;11.47;;;5.70;;
31482;SDS011;18103;52.246;8.052;2023-02-13T12:16:29;11.97;;;5.77;;
31482;SDS011;18103;52.246;8.052;2023-02-13T12:18:59;11.13;;;5.13;;
31482;SDS011;18103;52.246;8.052;2023-02-13T12:24:25;12.90;;;6.03;;
31482;SDS011;18103;52.246;8.052;2023-02-13T12:38:37;11.33;;;5.53;;
31482;SDS011;18103;52.246;8.052;2023-02-13T12:41:15;9.70;;;4.90;;
31482;SDS011;18103;52.246;8.052;2023-02-13T12:49:23;8.53;;;4.80;;
31482;SDS011;18103;52.246;8.052;2023-02-13T13:15:29;9.70;;;5.07;;
31482;SDS011;18103;52.246;8.052;2023-02-13T13:23:21;12.60;;;5.43;;
31482;SDS011;18103;52.246;8.052;2023-02-13T13:29:14;8.57;;;4.57;;
31482;SDS011;18103;52.246;8.052;2023-02-13T13:31:49;8.27;;;4.67;;
31482;SDS011;18103;52.246;8.052;2023-02-13T13:34:25;15.53;;;5.73;;
31482;SDS011;18103;52.246;8.052;2023-02-13T13:39:49;9.83;;;5.20;;
31482;SDS011;18103;52.246;8.052;2023-02-13T13:45:14;8.60;;;5.00;;
31482;SDS011;18103;52.246;8.052;2023-02-13T13:47:56;8.00;;;4.60;;
31482;SDS011;18103;52.246;8.052;2023-02-13T13:50:35;10.80;;;5.20;;
31482;SDS011;18103;52.246;8.052;2023-02-13T13:58:20;9.90;;;5.47;;
31482;SDS011;18103;52.246;8.052;2023-02-13T14:03:38;14.60;;;4.73;;
31482;SDS011;18103;52.246;8.052;2023-02-13T14:06:08;9.30;;;4.83;;
31482;SDS011;18103;52.246;8.052;2023-02-13T14:11:03;10.87;;;5.43;;
31482;SDS011;18103;52.246;8.052;2023-02-13T14:13:31;6.30;;;4.33;;
31482;SDS011;18103;52.246;8.052;2023-02-13T14:16:04;8.33;;;5.17;;
31482;SDS011;18103;52.246;8.052;2023-02-13T14:18:33;8.77;;;5.47;;
31482;SDS011;18103;52.246;8.052;2023-02-13T14:21:00;8.00;;;4.67;;
31482;SDS011;18103;52.246;8.052;2023-02-13T14:23:46;8.43;;;4.53;;
31482;SDS011;18103;52.246;8.052;2023-02-13T14:28:42;7.97;;;4.43;;
31482;SDS011;18103;52.246;8.052;2023-02-13T14:31:31;8.60;;;5.07;;
31482;SDS011;18103;52.246;8.052;2023-02-13T14:36:28;7.43;;;4.87;;
31482;SDS011;18103;52.246;8.052;2023-02-13T14:39:06;7.67;;;4.63;;
31482;SDS011;18103;52.246;8.052;2023-02-13T14:47:18;6.80;;;4.43;;
31482;SDS011;18103;52.246;8.052;2023-02-13T14:49:47;8.73;;;4.70;;
31482;SDS011;18103;52.246;8.052;2023-02-13T14:52:17;9.17;;;4.97;;
31482;SDS011;18103;52.246;8.052;2023-02-13T14:54:54;7.77;;;4.77;;
31482;SDS011;18103;52.246;8.052;2023-02-13T15:02:50;7.33;;;4.40;;
31482;SDS011;18103;52.246;8.052;2023-02-13T15:05:20;8.70;;;5.03;;
31482;SDS011;18103;52.246;8.052;2023-02-13T15:08:31;8.63;;;4.73;;
31482;SDS011;18103;52.246;8.052;2023-02-13T15:10:47;7.83;;;4.10;;
31482;SDS011;18103;52.246;8.052;2023-02-13T15:18:28;7.00;;;4.67;;
31482;SDS011;18103;52.246;8.052;2023-02-13T15:20:57;9.60;;;4.60;;
31482;SDS011;18103;52.246;8.052;2023-02-13T15:23:30;8.37;;;4.63;;
31482;SDS011;18103;52.246;8.052;2023-02-13T15:28:23;7.97;;;5.27;;
31482;SDS011;18103;52.246;8.052;2023-02-13T15:30:59;7.63;;;4.77;;
31482;SDS011;18103;52.246;8.052;2023-02-13T15:33:33;12.60;;;5.03;;
31482;SDS011;18103;52.246;8.052;2023-02-13T15:36:12;13.20;;;6.07;;
31482;SDS011;18103;52.246;8.052;2023-02-13T15:38:41;8.17;;;4.97;;
31482;SDS011;18103;52.246;8.052;2023-02-13T15:41:23;7.93;;;4.30;;
31482;SDS011;18103;52.246;8.052;2023-02-13T15:43:55;7.30;;;4.10;;
31482;SDS011;18103;52.246;8.052;2023-02-13T15:46:26;11.17;;;5.70;;
31482;SDS011;18103;52.246;8.052;2023-02-13T15:48:53;8.90;;;4.90;;
31482;SDS011;18103;52.246;8.052;2023-02-13T15:51:22;10.90;;;5.47;;
31482;SDS011;18103;52.246;8.052;2023-02-13T15:53:51;8.10;;;4.60;;
31482;SDS011;18103;52.246;8.052;2023-02-13T15:56:21;8.00;;;4.83;;
31482;SDS011;18103;52.246;8.052;2023-02-13T15:58:46;8.43;;;4.97;;
31482;SDS011;18103;52.246;8.052;2023-02-13T16:01:13;8.03;;;4.57;;
31482;SDS011;18103;52.246;8.052;2023-02-13T16:03:40;8.57;;;5.07;;
31482;SDS011;18103;52.246;8.052;2023-02-13T16:06:11;9.90;;;5.17;;
31482;SDS011;18103;52.246;8.052;2023-02-13T16:08:57;9.47;;;5.27;;
31482;SDS011;18103;52.246;8.052;2023-02-13T16:13:55;10.07;;;5.43;;
31482;SDS011;18103;52.246;8.052;2023-02-13T16:16:28;12.70;;;5.43;;
31482;SDS011;18103;52.246;8.052;2023-02-13T16:18:57;9.13;;;5.47;;
31482;SDS011;18103;52.246;8.052;2023-02-13T16:21:23;13.60;;;4.97;;
31482;SDS011;18103;52.246;8.052;2023-02-13T16:23:55;10.10;;;5.37;;
31482;SDS011;18103;52.246;8.052;2023-02-13T16:26:27;14.07;;;5.37;;
31482;SDS011;18103;52.246;8.052;2023-02-13T16:28:52;8.67;;;5.13;;
31482;SDS011;18103;52.246;8.052;2023-02-13T16:31:19;8.33;;;4.63;;
31482;SDS011;18103;52.246;8.052;2023-02-13T16:33:46;11.97;;;5.30;;
31482;SDS011;18103;52.246;8.052;2023-02-13T16:38:38;9.43;;;4.77;;
31482;SDS011;18103;52.246;8.052;2023-02-13T16:46:19;8.90;;;4.67;;
31482;SDS011;18103;52.246;8.052;2023-02-13T16:54:05;7.87;;;4.77;;
31482;SDS011;18103;52.246;8.052;2023-02-13T16:56:44;11.13;;;5.33;;
31482;SDS011;18103;52.246;8.052;2023-02-13T17:04:38;9.73;;;5.50;;
31482;SDS011;18103;52.246;8.052;2023-02-13T17:07:15;13.93;;;5.20;;
31482;SDS011;18103;52.246;8.052;2023-02-13T17:09:51;15.33;;;5.07;;
31482;SDS011;18103;52.246;8.052;2023-02-13T17:12:18;17.27;;;5.13;;
31482;SDS011;18103;52.246;8.052;2023-02-13T17:14:44;8.47;;;4.50;;
31482;SDS011;18103;52.246;8.052;2023-02-13T17:17:14;22.50;;;5.20;;
31482;SDS011;18103;52.246;8.052;2023-02-13T17:19:42;7.53;;;4.20;;
31482;SDS011;18103;52.246;8.052;2023-02-13T17:22:12;10.67;;;5.13;;
31482;SDS011;18103;52.246;8.052;2023-02-13T17:24:43;13.50;;;4.87;;
31482;SDS011;18103;52.246;8.052;2023-02-13T17:27:09;11.23;;;5.30;;
31482;SDS011;18103;52.246;8.052;2023-02-13T17:29:35;10.23;;;5.67;;
31482;SDS011;18103;52.246;8.052;2023-02-13T17:32:00;13.37;;;7.47;;
31482;SDS011;18103;52.246;8.052;2023-02-13T17:34:26;22.47;;;8.53;;
31482;SDS011;18103;52.246;8.052;2023-02-13T17:36:52;19.53;;;7.87;;
31482;SDS011;18103;52.246;8.052;2023-02-13T17:39:17;19.33;;;9.63;;
31482;SDS011;18103;52.246;8.052;2023-02-13T17:41:42;19.47;;;8.67;;
31482;SDS011;18103;52.246;8.052;2023-02-13T17:44:10;15.70;;;7.10;;
31482;SDS011;18103;52.246;8.052;2023-02-13T17:46:37;14.57;;;5.80;;
31482;SDS011;18103;52.246;8.052;2023-02-13T17:49:03;14.17;;;7.20;;
31482;SDS011;18103;52.246;8.052;2023-02-13T17:51:28;13.17;;;6.83;;
31482;SDS011;18103;52.246;8.052;2023-02-13T17:53:55;13.03;;;6.20;;
31482;SDS011;18103;52.246;8.052;2023-02-13T17:56:20;9.00;;;5.60;;
31482;SDS011;18103;52.246;8.052;2023-02-13T17:58:46;17.97;;;8.07;;
31482;SDS011;18103;52.246;8.052;2023-02-13T18:01:11;15.50;;;6.30;;
31482;SDS011;18103;52.246;8.052;2023-02-13T18:03:36;15.73;;;6.23;;